createdAt,value
2023-05-11T00:02:28.223Z,5.00
2023-05-11T00:04:56.610Z,6.13
2023-05-11T00:07:24.903Z,6.90
2023-05-11T00:09:53.392Z,7.33
2023-05-11T00:12:23.010Z,6.43
2023-05-11T00:14:51.322Z,6.97
2023-05-11T00:17:20.690Z,7.00
2023-05-11T00:19:49.341Z,7.47
2023-05-11T00:22:17.611Z,6.60
2023-05-11T00:24:46.090Z,6.50
2023-05-11T00:27:14.283Z,6.60
2023-05-11T00:29:44.766Z,5.77
2023-05-11T00:32:13.168Z,6.30
2023-05-11T00:34:41.459Z,6.30
2023-05-11T00:37:09.755Z,6.27
2023-05-11T00:39:40.670Z,5.53
2023-05-11T00:42:09.117Z,4.90
2023-05-11T00:44:37.443Z,5.93
2023-05-11T00:47:07.717Z,5.83
2023-05-11T00:49:36.019Z,5.90
2023-05-11T00:52:04.352Z,5.13
2023-05-11T00:54:32.880Z,6.47
2023-05-11T00:57:01.404Z,5.73
2023-05-11T00:59:30.078Z,5.87
2023-05-11T01:01:58.889Z,5.27
2023-05-11T01:04:28.673Z,4.90
2023-05-11T01:07:03.036Z,5.23
2023-05-11T01:09:38.986Z,5.50
2023-05-11T01:12:14.173Z,5.80
2023-05-11T01:14:45.981Z,5.30
2023-05-11T01:17:20.193Z,5.63
2023-05-11T01:19:56.772Z,5.30
2023-05-11T01:22:39.941Z,4.60
2023-05-11T01:25:29.209Z,4.53
2023-05-11T01:28:14.929Z,4.33
2023-05-11T01:30:49.266Z,4.37
2023-05-11T01:33:18.244Z,4.03
2023-05-11T01:35:52.402Z,4.70
2023-05-11T01:38:23.037Z,5.07
2023-05-11T01:40:56.042Z,3.83
2023-05-11T01:43:26.979Z,4.73
2023-05-11T01:46:01.475Z,4.40
2023-05-11T01:48:33.032Z,4.20
2023-05-11T01:51:03.116Z,3.70
2023-05-11T01:53:34.859Z,4.17
2023-05-11T01:56:03.890Z,3.80
2023-05-11T01:58:34.316Z,3.93
2023-05-11T02:01:06.816Z,4.17
2023-05-11T02:03:36.904Z,3.10
2023-05-11T02:06:05.886Z,4.30
2023-05-11T02:08:37.230Z,3.90
2023-05-11T02:11:05.906Z,4.33
2023-05-11T02:13:34.953Z,3.60
2023-05-11T02:16:05.512Z,4.20
2023-05-11T02:18:34.490Z,3.93
2023-05-11T02:21:03.359Z,3.53
2023-05-11T02:23:32.971Z,4.03
2023-05-11T02:26:01.414Z,3.70
2023-05-11T02:28:29.737Z,3.30
2023-05-11T02:31:02.022Z,4.03
2023-05-11T02:33:36.504Z,3.90
2023-05-11T02:36:08.249Z,3.23
2023-05-11T02:38:38.596Z,4.23
2023-05-11T02:41:13.128Z,3.37
2023-05-11T02:43:48.800Z,3.97
2023-05-11T02:46:21.680Z,3.97
2023-05-11T02:48:55.741Z,3.80
2023-05-11T02:51:30.279Z,3.77
2023-05-11T02:53:59.499Z,2.97
2023-05-11T02:56:31.631Z,4.00
2023-05-11T02:59:00.174Z,3.30
2023-05-11T03:01:30.851Z,3.73
2023-05-11T03:04:01.467Z,3.00
2023-05-11T03:06:31.827Z,3.83
2023-05-11T03:09:00.404Z,3.33
2023-05-11T03:11:29.851Z,3.80
2023-05-11T03:13:58.718Z,3.03
2023-05-11T03:16:27.931Z,3.27
2023-05-11T03:18:58.203Z,3.27
2023-05-11T03:21:28.660Z,3.50
2023-05-11T03:23:58.025Z,3.90
2023-05-11T03:26:30.127Z,3.60
2023-05-11T03:28:59.566Z,3.63
2023-05-11T03:31:27.947Z,3.10
2023-05-11T03:33:58.576Z,3.47
2023-05-11T03:36:29.518Z,3.47
2023-05-11T03:38:59.065Z,4.00
2023-05-11T03:41:34.569Z,3.13
2023-05-11T03:44:04.926Z,3.00
2023-05-11T03:46:35.963Z,3.63
2023-05-11T03:49:06.652Z,4.10
2023-05-11T03:51:38.002Z,3.40
2023-05-11T03:54:07.230Z,3.30
2023-05-11T03:56:37.522Z,3.47
2023-05-11T03:59:07.106Z,3.87
2023-05-11T04:01:35.613Z,3.43
2023-05-11T04:04:04.035Z,3.13
2023-05-11T04:06:32.599Z,3.23
2023-05-11T04:09:12.593Z,3.37
2023-05-11T04:11:40.928Z,2.80
2023-05-11T04:14:09.255Z,3.30
2023-05-11T04:16:37.548Z,3.27
2023-05-11T04:19:06.510Z,2.97
2023-05-11T04:21:36.836Z,2.90
2023-05-11T04:24:06.317Z,3.80
2023-05-11T04:26:36.202Z,2.87
2023-05-11T04:29:05.121Z,3.23
2023-05-11T04:31:34.001Z,2.70
2023-05-11T04:34:04.336Z,3.30
2023-05-11T04:36:33.010Z,2.63
2023-05-11T04:39:01.320Z,2.90
2023-05-11T04:41:29.706Z,3.30
2023-05-11T04:44:01.329Z,3.20
2023-05-11T04:46:29.748Z,2.70
2023-05-11T04:48:57.907Z,3.27
2023-05-11T04:51:26.092Z,2.93
2023-05-11T04:53:54.678Z,3.50
2023-05-11T04:56:22.906Z,3.03
2023-05-11T04:58:51.692Z,3.57
2023-05-11T05:01:21.719Z,3.30
2023-05-11T05:03:50.903Z,3.07
2023-05-11T05:06:19.273Z,3.83
2023-05-11T05:08:47.406Z,2.60
2023-05-11T05:11:15.850Z,3.03
2023-05-11T05:13:44.264Z,2.60
2023-05-11T05:16:12.480Z,3.47
2023-05-11T05:18:42.700Z,2.97
2023-05-11T05:21:12.931Z,3.53
2023-05-11T05:23:41.450Z,3.00
2023-05-11T05:26:13.662Z,3.43
2023-05-11T05:28:46.806Z,3.20
2023-05-11T05:31:23.226Z,3.33
2023-05-11T05:33:54.314Z,3.33
2023-05-11T05:36:25.769Z,3.63
2023-05-11T05:38:55.302Z,3.17
2023-05-11T05:44:27.805Z,2.87
2023-05-11T05:46:57.451Z,2.80
2023-05-11T05:49:33.172Z,3.00
2023-05-11T05:52:07.509Z,2.90
2023-05-11T05:54:37.957Z,3.63
2023-05-11T05:57:07.668Z,3.07
2023-05-11T05:59:46.565Z,3.30
2023-05-11T06:02:22.652Z,3.50
2023-05-11T06:04:56.549Z,3.00
2023-05-11T06:08:08.425Z,2.57
2023-05-11T06:11:08.376Z,4.30
2023-05-11T06:13:38.500Z,3.43
2023-05-11T06:16:15.963Z,3.57
2023-05-11T06:18:54.941Z,4.00
2023-05-11T06:21:35.332Z,3.20
2023-05-11T06:24:09.647Z,3.57
2023-05-11T06:26:43.076Z,3.20
2023-05-11T06:29:14.061Z,2.80
2023-05-11T06:31:49.833Z,3.30
2023-05-11T06:34:22.084Z,2.80
2023-05-11T06:37:04.749Z,3.40
2023-05-11T06:39:40.302Z,3.60
2023-05-11T06:42:13.054Z,2.30
2023-05-11T06:44:49.464Z,2.33
2023-05-11T06:47:19.108Z,2.80
2023-05-11T06:49:48.871Z,3.43
2023-05-11T06:52:24.560Z,3.00
2023-05-11T06:54:57.419Z,3.10
2023-05-11T06:57:26.289Z,3.67
2023-05-11T06:59:57.198Z,3.37
2023-05-11T07:02:33.120Z,2.90
2023-05-11T07:05:04.958Z,3.10
2023-05-11T07:07:39.355Z,2.90
2023-05-11T07:10:18.751Z,3.10
2023-05-11T07:12:51.674Z,3.40
2023-05-11T07:15:22.101Z,3.43
2023-05-11T07:17:59.135Z,3.30
2023-05-11T07:20:30.341Z,2.90
2023-05-11T07:23:02.938Z,3.53
2023-05-11T07:25:35.111Z,3.17
2023-05-11T07:28:13.884Z,3.20
2023-05-11T07:30:43.190Z,3.80
2023-05-11T07:33:11.927Z,3.40
2023-05-11T07:35:40.630Z,3.00
2023-05-11T07:38:14.575Z,3.20
2023-05-11T07:41:12.666Z,4.00
2023-05-11T07:43:44.484Z,3.77
2023-05-11T07:46:13.414Z,3.37
2023-05-11T07:48:45.137Z,3.53
2023-05-11T07:51:23.757Z,3.70
2023-05-11T07:53:56.056Z,4.00
2023-05-11T07:56:31.165Z,3.97
2023-05-11T07:59:07.331Z,4.10
2023-05-11T08:01:38.101Z,3.43
2023-05-11T08:04:08.183Z,3.90
2023-05-11T08:06:45.280Z,3.67
2023-05-11T08:09:17.038Z,4.10
2023-05-11T08:11:49.972Z,2.80
2023-05-11T08:14:24.436Z,3.70
2023-05-11T08:19:48.814Z,4.10
2023-05-11T08:22:17.932Z,4.07
2023-05-11T08:24:48.615Z,4.53
2023-05-11T08:27:17.345Z,3.17
2023-05-11T08:29:47.496Z,3.47
2023-05-11T08:32:21.317Z,4.60
2023-05-11T08:34:52.386Z,4.43
2023-05-11T08:37:26.290Z,3.77
2023-05-11T08:39:58.468Z,4.90
2023-05-11T08:42:28.151Z,4.80
2023-05-11T08:44:58.226Z,4.43
2023-05-11T08:47:30.419Z,4.13
2023-05-11T08:49:59.255Z,3.50
2023-05-11T08:52:28.631Z,5.20
2023-05-11T08:54:58.976Z,3.47
2023-05-11T08:57:30.239Z,4.13
2023-05-11T08:59:59.894Z,3.90
2023-05-11T09:02:29.478Z,3.67
2023-05-11T09:05:00.280Z,4.00
2023-05-11T09:07:30.198Z,3.70
2023-05-11T09:10:00.248Z,4.50
2023-05-11T09:12:31.485Z,4.63
2023-05-11T09:15:03.135Z,5.00
2023-05-11T09:17:32.866Z,4.47
2023-05-11T09:20:02.305Z,4.33
2023-05-11T09:22:38.011Z,5.13
2023-05-11T09:25:09.750Z,5.63
2023-05-11T09:27:44.490Z,5.10
2023-05-11T09:32:52.726Z,4.93
2023-05-11T09:35:24.652Z,5.30
2023-05-11T09:38:12.242Z,4.60
2023-05-11T09:40:43.906Z,4.70
2023-05-11T09:43:18.002Z,5.87
2023-05-11T09:45:47.373Z,6.13
2023-05-11T09:48:26.414Z,5.10
2023-05-11T09:51:01.125Z,6.20
2023-05-11T09:53:38.002Z,5.50
2023-05-11T09:56:08.699Z,4.90
2023-05-11T09:58:48.277Z,5.83
2023-05-11T10:01:17.206Z,5.50
2023-05-11T10:03:50.233Z,5.13
2023-05-11T10:06:20.234Z,5.90
2023-05-11T10:08:49.017Z,6.40
2023-05-11T10:11:22.098Z,5.80
2023-05-11T10:13:53.424Z,6.27
2023-05-11T10:16:21.676Z,6.50
2023-05-11T10:18:50.127Z,7.23
2023-05-11T10:21:18.399Z,6.40
2023-05-11T10:23:46.801Z,6.20
2023-05-11T10:26:15.488Z,8.77
2023-05-11T10:28:45.702Z,8.70
2023-05-11T10:31:15.016Z,10.00
2023-05-11T10:33:43.173Z,9.03
2023-05-11T10:36:12.319Z,8.47
2023-05-11T10:38:40.750Z,8.30
2023-05-11T10:41:17.677Z,8.70
2023-05-11T10:44:08.495Z,9.83
2023-05-11T10:46:44.289Z,8.20
2023-05-11T10:49:38.288Z,9.43
2023-05-11T10:52:47.394Z,9.20
2023-05-11T10:55:21.145Z,9.77
2023-05-11T10:58:08.436Z,9.43
2023-05-11T11:01:16.683Z,9.60
2023-05-11T11:03:59.569Z,12.57
2023-05-11T11:06:28.525Z,15.43
2023-05-11T11:08:58.546Z,22.50
2023-05-11T11:11:31.577Z,24.87
2023-05-11T11:14:02.831Z,19.23
2023-05-11T11:16:31.559Z,14.53
2023-05-11T11:19:38.593Z,16.90
2023-05-11T11:22:07.643Z,17.03
2023-05-11T11:24:46.733Z,15.87
2023-05-11T11:27:15.768Z,18.40
2023-05-11T11:30:21.741Z,19.83
2023-05-11T11:32:50.952Z,17.27
2023-05-11T11:35:49.017Z,19.50
2023-05-11T11:38:18.674Z,15.37
2023-05-11T11:40:51.766Z,16.40
2023-05-11T11:43:22.407Z,15.57
2023-05-11T11:45:54.825Z,14.80
2023-05-11T11:48:24.690Z,16.30
2023-05-11T11:51:04.744Z,15.33
2023-05-11T11:54:09.654Z,15.90
2023-05-11T11:56:40.221Z,15.80
2023-05-11T11:59:11.965Z,14.63
2023-05-11T12:01:41.236Z,15.97
2023-05-11T12:04:47.410Z,13.80
2023-05-11T12:07:17.422Z,10.67
2023-05-11T12:09:47.016Z,11.63
2023-05-11T12:12:18.612Z,8.17
2023-05-11T12:14:49.400Z,7.50
2023-05-11T12:17:25.306Z,6.80
2023-05-11T12:19:53.930Z,8.27
2023-05-11T12:22:27.686Z,8.10
2023-05-11T12:25:00.516Z,8.23
2023-05-11T12:27:29.624Z,7.60
2023-05-11T12:29:58.707Z,7.10
2023-05-11T12:32:28.991Z,8.10
2023-05-11T12:35:04.643Z,8.73
2023-05-11T12:37:34.894Z,7.77
2023-05-11T12:40:03.611Z,6.17
2023-05-11T12:42:33.919Z,8.47
2023-05-11T12:45:04.213Z,7.53
2023-05-11T12:47:33.437Z,7.80
2023-05-11T12:50:01.699Z,6.93
2023-05-11T12:52:30.599Z,5.93
2023-05-11T12:55:01.182Z,6.73
2023-05-11T12:57:31.132Z,7.30
2023-05-11T13:00:11.667Z,7.90
2023-05-11T13:02:50.894Z,6.93
2023-05-11T13:05:20.871Z,7.87
2023-05-11T13:07:49.734Z,7.77
2023-05-11T13:10:25.581Z,6.47
2023-05-11T13:12:54.338Z,7.23
2023-05-11T13:15:23.698Z,6.57
2023-05-11T13:17:58.284Z,7.83
2023-05-11T13:20:28.020Z,7.60
2023-05-11T13:23:07.258Z,7.00
2023-05-11T13:25:53.338Z,8.10
2023-05-11T13:28:23.442Z,6.70
2023-05-11T13:30:52.352Z,8.87
2023-05-11T13:33:20.582Z,7.00
2023-05-11T13:35:48.693Z,7.33
2023-05-11T13:38:16.857Z,7.20
2023-05-11T13:40:46.365Z,6.50
2023-05-11T13:43:14.524Z,6.30
2023-05-11T13:45:42.838Z,6.30
2023-05-11T13:48:11.424Z,7.33
2023-05-11T13:50:39.809Z,6.60
2023-05-11T13:53:07.902Z,7.27
2023-05-11T13:55:38.136Z,7.40
2023-05-11T13:58:08.251Z,5.93
2023-05-11T14:00:36.488Z,6.70
2023-05-11T14:03:04.953Z,4.60
2023-05-11T14:05:33.136Z,5.43
2023-05-11T14:08:01.323Z,6.57
2023-05-11T14:10:29.543Z,6.70
2023-05-11T14:12:57.691Z,7.00
2023-05-11T14:15:27.264Z,7.07
2023-05-11T14:17:55.533Z,6.13
2023-05-11T14:20:23.762Z,6.63
2023-05-11T14:22:52.347Z,6.40
2023-05-11T14:25:20.774Z,6.43
2023-05-11T14:27:49.970Z,5.67
2023-05-11T14:30:18.136Z,5.50
2023-05-11T14:32:49.327Z,5.67
2023-05-11T14:35:17.864Z,5.83
2023-05-11T14:37:46.332Z,6.93
2023-05-11T14:40:14.801Z,6.40
2023-05-11T14:42:42.908Z,6.00
2023-05-11T14:45:11.987Z,6.17
2023-05-11T14:47:40.277Z,5.83
2023-05-11T14:50:11.324Z,6.27
2023-05-11T14:52:39.464Z,7.03
2023-05-11T14:55:08.721Z,7.30
2023-05-11T14:57:36.875Z,3.80
2023-05-11T15:00:05.747Z,6.10
2023-05-11T15:02:35.393Z,6.77
2023-05-11T15:05:03.725Z,6.47
2023-05-11T15:07:35.375Z,5.70
2023-05-11T15:10:03.863Z,6.00
2023-05-11T15:12:33.884Z,6.37
2023-05-11T15:15:02.236Z,6.70
2023-05-11T15:17:33.459Z,6.87
2023-05-11T15:20:02.066Z,5.87
2023-05-11T15:22:30.886Z,5.50
2023-05-11T15:25:01.348Z,6.30
2023-05-11T15:27:30.542Z,5.30
2023-05-11T15:29:58.823Z,5.50
2023-05-11T15:32:27.061Z,5.70
2023-05-11T15:34:59.923Z,3.97
2023-05-11T15:37:28.701Z,7.60
2023-05-11T15:39:57.198Z,6.57
2023-05-11T15:42:26.926Z,5.97
2023-05-11T15:44:55.214Z,5.77
2023-05-11T15:47:23.685Z,5.50
2023-05-11T15:49:52.817Z,5.70
2023-05-11T15:52:21.533Z,5.90
2023-05-11T15:54:50.055Z,6.60
2023-05-11T15:57:18.387Z,6.90
2023-05-11T15:59:49.039Z,6.80
2023-05-11T16:02:17.362Z,6.60
2023-05-11T16:04:47.134Z,6.40
2023-05-11T16:07:15.662Z,5.67
2023-05-11T16:09:45.000Z,6.70
2023-05-11T16:12:13.262Z,4.17
2023-05-11T16:14:41.548Z,5.23
2023-05-11T16:17:11.145Z,6.03
2023-05-11T16:19:39.497Z,6.97
2023-05-11T16:22:07.831Z,7.63
2023-05-11T16:24:36.126Z,5.87
2023-05-11T16:27:04.632Z,5.80
2023-05-11T16:29:33.134Z,6.67
2023-05-11T16:32:01.724Z,5.57
2023-05-11T16:34:32.029Z,6.07
2023-05-11T16:37:00.492Z,6.97
2023-05-11T16:39:28.857Z,6.17
2023-05-11T16:41:57.500Z,6.10
2023-05-11T16:44:26.180Z,6.30
2023-05-11T16:46:54.818Z,4.73
2023-05-11T16:49:23.400Z,5.40
2023-05-11T16:51:53.952Z,6.70
2023-05-11T16:54:22.942Z,6.60
2023-05-11T16:56:51.954Z,5.83
2023-05-11T16:59:21.559Z,6.77
2023-05-11T17:01:50.920Z,6.50
2023-05-11T17:04:20.079Z,6.93
2023-05-11T17:06:49.211Z,6.40
2023-05-11T17:09:20.035Z,6.80
2023-05-11T17:11:49.199Z,7.60
2023-05-11T17:14:18.353Z,6.43
2023-05-11T17:16:47.691Z,7.67
2023-05-11T17:19:17.057Z,7.50
2023-05-11T17:21:46.315Z,7.50
2023-05-11T17:24:15.497Z,5.83
2023-05-11T17:26:48.331Z,6.70
2023-05-11T17:29:18.036Z,7.23
2023-05-11T17:31:49.514Z,7.70
2023-05-11T17:34:19.496Z,7.40
2023-05-11T17:36:49.627Z,6.60
2023-05-11T17:39:20.562Z,6.47
2023-05-11T17:41:51.719Z,7.03
2023-05-11T17:44:21.100Z,5.83
2023-05-11T17:46:50.572Z,7.87
2023-05-11T17:49:19.727Z,7.90
2023-05-11T17:51:49.115Z,7.73
2023-05-11T17:54:18.643Z,7.77
2023-05-11T17:56:47.930Z,6.47
2023-05-11T17:59:21.046Z,7.00
2023-05-11T18:01:50.650Z,6.50
2023-05-11T18:04:20.099Z,6.27
2023-05-11T18:06:51.199Z,6.83
2023-05-11T18:09:20.824Z,7.20
2023-05-11T18:11:50.167Z,4.40
2023-05-11T18:14:21.665Z,7.30
2023-05-11T18:16:53.360Z,7.73
2023-05-11T18:19:22.530Z,7.20
2023-05-11T18:21:52.246Z,6.90
2023-05-11T18:24:21.695Z,7.03
2023-05-11T18:26:50.932Z,7.63
2023-05-11T18:29:22.673Z,4.50
2023-05-11T18:31:53.331Z,7.60
2023-05-11T18:34:23.037Z,7.83
2023-05-11T18:36:52.295Z,6.67
2023-05-11T18:39:22.828Z,7.30
2023-05-11T18:41:52.281Z,7.20
2023-05-11T18:44:23.500Z,7.53
2023-05-11T18:46:52.819Z,6.33
2023-05-11T18:49:23.308Z,7.43
2023-05-11T18:51:52.636Z,7.97
2023-05-11T18:54:22.292Z,3.97
2023-05-11T18:56:52.617Z,6.80
2023-05-11T18:59:23.878Z,6.07
2023-05-11T19:01:53.466Z,7.37
2023-05-11T19:04:23.655Z,6.73
2023-05-11T19:06:54.000Z,7.00
2023-05-11T19:09:23.799Z,5.30
2023-05-11T19:11:53.095Z,7.60
2023-05-11T19:14:23.813Z,6.57
2023-05-11T19:16:53.109Z,6.97
2023-05-11T19:19:23.494Z,7.30
2023-05-11T19:21:53.397Z,7.17
2023-05-11T19:24:22.757Z,7.20
2023-05-11T19:27:05.384Z,6.60
2023-05-11T19:29:38.094Z,7.70
2023-05-11T19:32:08.020Z,7.13
2023-05-11T19:34:37.865Z,6.10
2023-05-11T19:37:07.802Z,5.90
2023-05-11T19:39:37.148Z,6.57
2023-05-11T19:42:06.668Z,5.83
2023-05-11T19:44:43.990Z,6.23
2023-05-11T19:47:13.200Z,5.80
2023-05-11T19:49:42.433Z,6.77
2023-05-11T19:52:11.627Z,6.03
2023-05-11T19:54:41.027Z,6.00
2023-05-11T19:57:10.713Z,5.80
2023-05-11T19:59:41.308Z,6.73
2023-05-11T20:02:10.681Z,5.20
2023-05-11T20:04:40.398Z,6.80
2023-05-11T20:07:09.777Z,5.00
2023-05-11T20:09:38.962Z,6.20
2023-05-11T20:12:08.367Z,6.77
2023-05-11T20:14:41.543Z,5.90
2023-05-11T20:17:12.144Z,5.67
2023-05-11T20:19:41.337Z,6.33
2023-05-11T20:22:10.477Z,6.60
2023-05-11T20:24:39.527Z,6.37
2023-05-11T20:27:10.215Z,6.40
2023-05-11T20:29:40.959Z,6.80
2023-05-11T20:32:10.340Z,5.73
2023-05-11T20:34:40.905Z,6.67
2023-05-11T20:37:10.140Z,6.50
2023-05-11T20:39:39.217Z,7.30
2023-05-11T20:42:08.408Z,6.33
2023-05-11T20:44:37.427Z,5.90
2023-05-11T20:47:06.788Z,5.77
2023-05-11T20:49:39.273Z,5.93
2023-05-11T20:52:09.869Z,5.77
2023-05-11T20:54:38.158Z,5.17
2023-05-11T20:57:08.303Z,6.10
2023-05-11T21:02:08.548Z,5.40
2023-05-11T21:04:37.988Z,5.10
2023-05-11T21:07:06.480Z,5.53
2023-05-11T21:09:36.268Z,5.80
2023-05-11T21:12:04.612Z,4.70
2023-05-11T21:14:32.742Z,5.00
2023-05-11T21:17:01.000Z,5.70
2023-05-11T21:19:29.265Z,5.57
2023-05-11T21:21:57.528Z,5.40
2023-05-11T21:24:25.706Z,5.80
2023-05-11T21:26:55.295Z,4.90
2023-05-11T21:29:23.799Z,5.10
2023-05-11T21:31:53.066Z,5.10
2023-05-11T21:34:21.350Z,4.43
2023-05-11T21:36:49.844Z,4.37
2023-05-11T21:39:18.038Z,4.90
2023-05-11T21:41:46.257Z,4.50
2023-05-11T21:44:16.191Z,3.57
2023-05-11T21:46:44.381Z,4.10
2023-05-11T21:49:13.533Z,3.87
2023-05-11T21:51:41.740Z,3.90
2023-05-11T21:54:09.904Z,3.83
2023-05-11T21:56:38.083Z,3.10
2023-05-11T21:59:06.360Z,3.60
2023-05-11T22:01:36.280Z,2.80
2023-05-11T22:04:04.791Z,3.97
2023-05-11T22:06:33.051Z,3.10
2023-05-11T22:09:01.231Z,3.00
2023-05-11T22:11:29.347Z,3.40
2023-05-11T22:13:57.680Z,2.67
2023-05-11T22:16:26.104Z,3.30
2023-05-11T22:18:55.662Z,3.40
2023-05-11T22:21:26.676Z,2.60
2023-05-11T22:23:55.068Z,3.00
2023-05-11T22:26:23.352Z,2.50
2023-05-11T22:28:52.843Z,2.10
2023-05-11T22:31:21.262Z,2.20
2023-05-11T22:33:49.782Z,2.73
2023-05-11T22:36:19.407Z,2.97
2023-05-11T22:38:47.539Z,2.70
2023-05-11T22:41:15.997Z,2.73
2023-05-11T22:43:44.367Z,1.93
2023-05-11T22:46:12.648Z,2.97
2023-05-11T22:48:41.317Z,2.60
2023-05-11T22:51:09.560Z,3.00
2023-05-11T22:53:39.105Z,2.53
2023-05-11T22:56:09.243Z,2.43
2023-05-11T22:58:37.419Z,2.53
2023-05-11T23:01:06.010Z,2.90
2023-05-11T23:03:34.190Z,2.13
2023-05-11T23:06:02.377Z,2.07
2023-05-11T23:08:30.618Z,2.40
2023-05-11T23:11:00.265Z,2.43
2023-05-11T23:13:28.433Z,1.77
2023-05-11T23:15:56.720Z,2.00
2023-05-11T23:18:25.853Z,2.20
2023-05-11T23:20:56.948Z,1.73
2023-05-11T23:23:25.217Z,2.30
2023-05-11T23:25:53.449Z,1.43
2023-05-11T23:28:23.703Z,1.60
2023-05-11T23:30:51.858Z,1.57
2023-05-11T23:33:20.058Z,1.50
2023-05-11T23:35:48.512Z,1.30
2023-05-11T23:38:16.851Z,1.57
2023-05-11T23:40:45.012Z,1.90
2023-05-11T23:43:13.365Z,1.20
2023-05-11T23:45:43.002Z,1.50
2023-05-11T23:48:11.665Z,1.30
2023-05-11T23:50:39.845Z,1.00
2023-05-11T23:53:08.307Z,1.40
2023-05-11T23:55:36.418Z,1.17
2023-05-11T23:58:04.544Z,1.20
